Time;durP1;ratioP1;P1;durP2;ratioP2;P2;SDS_P1;SDS_P2;PMS_P1;PMS_P2;Temp;Humidity;BMP_temperature;BMP_pressure;BME280_temperature;BME280_humidity;BME280_pressure;Samples;Min_cycle;Max_cycle;Signal;HPM_P1;HPM_P2
2022/10/13 00:00:58;;;;;;;58.37;38.40;;;9.60;99.90;;;9.91;93.46;98496.13;5146718;27;20448;-79
2022/10/13 00:03:26;;;;;;;57.60;36.70;;;9.60;99.90;;;9.47;93.52;98453.09;5128018;27;20889;-80
2022/10/13 00:05:53;;;;;;;64.67;39.97;;;9.50;99.90;;;9.69;94.17;98503.47;5122605;27;20963;-81
2022/10/13 00:08:21;;;;;;;60.63;39.23;;;9.30;99.90;;;9.62;94.46;98489.94;5135370;27;20453;-80
2022/10/13 00:10:50;;;;;;;56.07;36.90;;;9.30;99.90;;;9.67;94.59;98495.56;5125122;27;20560;-81
2022/10/13 00:13:20;;;;;;;58.23;38.77;;;9.20;99.90;;;9.54;93.04;98501.72;5147782;27;20806;-81
2022/10/13 00:15:48;;;;;;;57.53;37.00;;;9.20;99.90;;;9.53;93.75;98502.75;5137192;27;20466;-81
2022/10/13 00:18:16;;;;;;;62.80;36.03;;;9.10;99.90;;;9.55;93.85;98503.38;5118923;27;21044;-80
2022/10/13 00:20:46;;;;;;;69.23;39.00;;;9.10;99.90;;;9.74;92.88;98514.50;5113155;27;20509;-80
2022/10/13 00:23:13;;;;;;;66.17;38.80;;;9.30;99.90;;;9.73;92.16;98500.19;5117191;27;20489;-78
2022/10/13 00:25:46;;;;;;;65.27;39.10;;;9.40;99.90;;;9.61;93.61;98507.97;5115689;27;20461;-81
2022/10/13 00:28:15;;;;;;;59.00;38.50;;;9.30;99.90;;;9.42;93.70;98508.66;5122741;27;20512;-81
2022/10/13 00:30:44;;;;;;;64.23;40.53;;;9.10;99.90;;;9.45;94.48;98519.91;5129435;27;20537;-82
2022/10/13 00:33:13;;;;;;;60.70;39.10;;;9.10;99.90;;;9.33;93.59;98510.69;5131002;27;20494;-80
2022/10/13 00:35:42;;;;;;;65.00;38.20;;;9.00;99.90;;;9.58;92.88;98513.75;5128729;27;20512;-80
2022/10/13 00:38:09;;;;;;;63.70;39.80;;;9.10;99.90;;;9.66;92.23;98509.25;5133424;27;20501;-80
2022/10/13 00:40:45;;;;;;;61.50;39.17;;;9.30;99.90;;;9.68;92.59;98507.19;5150627;27;20456;-80
2022/10/13 00:43:21;;;;;;;70.17;40.67;;;9.30;99.90;;;9.70;91.92;98500.56;5136860;27;20517;-81
2022/10/13 00:45:51;;;;;;;67.77;39.23;;;9.30;99.90;;;9.63;92.73;98510.47;5134744;27;20451;-80
2022/10/13 00:48:22;;;;;;;62.57;38.27;;;9.30;99.90;;;9.60;92.59;98503.59;5134667;27;20450;-81
2022/10/13 00:50:50;;;;;;;62.00;41.20;;;9.30;99.90;;;9.59;92.40;98509.22;5133374;27;20447;-81
2022/10/13 00:53:22;;;;;;;66.80;39.67;;;9.30;99.90;;;9.62;91.85;98516.91;5129649;27;20516;-82
2022/10/13 00:55:52;;;;;;;65.13;38.87;;;9.30;99.90;;;9.59;91.36;98515.44;5129351;27;20453;-81
2022/10/13 00:58:23;;;;;;;65.47;37.20;;;9.30;99.90;;;9.52;92.21;98517.25;5138446;27;20443;-81
2022/10/13 01:00:53;;;;;;;60.10;37.63;;;9.20;99.90;;;9.35;92.17;98508.63;5146582;27;20473;-80
2022/10/13 01:03:21;;;;;;;64.63;39.27;;;9.20;99.90;;;8.99;92.41;98440.31;5130239;27;20451;-81
2022/10/13 01:05:50;;;;;;;63.10;36.80;;;9.20;99.90;;;9.45;92.96;98502.88;5127658;27;20441;-81
2022/10/13 01:08:19;;;;;;;63.23;39.00;;;9.20;99.90;;;9.37;93.13;98489.56;5127771;27;20684;-81
2022/10/13 01:11:03;;;;;;;66.87;38.10;;;9.20;99.90;;;9.40;92.74;98494.53;5125315;27;20458;-81
2022/10/13 01:13:39;;;;;;;60.30;37.40;;;9.20;99.90;;;9.37;93.39;98492.25;5118206;27;20456;-80
2022/10/13 01:16:16;;;;;;;62.60;36.60;;;9.10;99.90;;;9.38;92.89;98502.81;5118597;27;20495;-79
2022/10/13 01:18:54;;;;;;;56.10;33.97;;;9.10;99.90;;;9.47;92.90;98506.19;5119338;27;20473;-79
2022/10/13 01:21:30;;;;;;;57.67;36.43;;;9.20;99.90;;;9.40;92.70;98481.06;5132091;27;20458;-80
2022/10/13 01:24:32;;;;;;;56.23;36.20;;;9.20;99.90;;;9.55;93.24;98508.78;5139920;27;20448;-80
2022/10/13 01:27:18;;;;;;;60.80;36.10;;;9.20;99.90;;;9.51;93.13;98507.50;5141170;27;20451;-80
2022/10/13 01:30:17;;;;;;;55.80;34.07;;;9.20;99.90;;;9.41;93.86;98507.00;5123900;27;20458;-81
2022/10/13 01:33:06;;;;;;;49.93;34.47;;;9.10;99.90;;;9.48;93.90;98519.50;5163585;27;20462;-81
2022/10/13 01:35:47;;;;;;;59.97;37.90;;;9.10;99.90;;;9.00;93.95;98431.19;5137411;27;20474;-80
2022/10/13 01:38:26;;;;;;;49.80;35.20;;;9.20;99.90;;;9.52;93.49;98508.31;5124726;27;20554;-81
2022/10/13 01:41:02;;;;;;;57.40;34.60;;;9.20;99.90;;;9.67;93.54;98506.34;5130153;27;21016;-81
2022/10/13 01:43:36;;;;;;;64.43;37.43;;;9.30;99.90;;;9.66;93.42;98501.16;5142218;27;20468;-80
2022/10/13 01:46:09;;;;;;;65.23;40.50;;;9.40;99.90;;;9.56;94.40;98488.84;5124859;27;20891;-80
2022/10/13 01:48:39;;;;;;;55.67;36.80;;;9.40;99.90;;;9.28;93.99;98435.75;5126695;27;20482;-82
2022/10/13 01:51:12;;;;;;;63.40;38.37;;;9.50;99.90;;;9.70;94.38;98494.34;5129418;27;20527;-81
2022/10/13 01:53:40;;;;;;;64.20;37.97;;;9.50;99.90;;;9.72;94.66;98494.97;5130565;27;21601;-84
2022/10/13 01:56:08;;;;;;;56.20;37.07;;;9.60;99.90;;;9.70;94.02;98483.53;5110158;28;20443;-80
2022/10/13 01:58:38;;;;;;;53.20;35.90;;;9.60;99.90;;;9.72;94.47;98489.56;5129423;27;20469;-79
2022/10/13 02:01:32;;;;;;;61.77;36.37;;;9.60;99.90;;;9.78;93.57;98491.47;5132436;27;20435;-80
2022/10/13 02:04:21;;;;;;;55.30;36.17;;;9.50;99.90;;;9.74;93.33;98480.25;5118086;27;20456;-82
2022/10/13 02:06:53;;;;;;;50.40;35.33;;;9.60;99.90;;;9.80;93.37;98489.44;5120348;27;20569;-80
2022/10/13 02:09:34;;;;;;;58.43;35.83;;;9.60;99.90;;;9.76;93.57;98483.59;5123809;27;20517;-80
2022/10/13 02:12:09;;;;;;;54.80;35.40;;;9.60;99.90;;;9.72;94.14;98487.72;5130433;27;20453;-80
2022/10/13 02:14:41;;;;;;;59.83;36.43;;;9.60;99.90;;;9.78;93.51;98480.66;5124592;27;20446;-80
2022/10/13 02:17:11;;;;;;;51.10;33.47;;;9.60;99.90;;;9.55;93.87;98462.91;5118587;27;20944;-80
2022/10/13 02:19:40;;;;;;;52.27;36.57;;;9.60;99.90;;;9.56;94.53;98480.75;5126290;27;20533;-80
2022/10/13 02:22:09;;;;;;;49.00;34.30;;;9.40;99.90;;;9.66;93.51;98476.88;5126843;28;20570;-79
2022/10/13 02:24:37;;;;;;;51.47;32.97;;;9.40;99.90;;;9.61;93.33;98462.09;5123739;27;21403;-80
2022/10/13 02:27:06;;;;;;;47.10;34.50;;;9.40;99.90;;;9.53;93.41;98469.53;5127361;28;20453;-82
2022/10/13 02:29:33;;;;;;;56.53;34.93;;;9.30;99.90;;;9.58;93.48;98476.00;5140092;27;20461;-81
2022/10/13 02:32:00;;;;;;;49.37;35.43;;;9.40;99.90;;;9.59;94.01;98474.97;5126595;28;20451;-80
2022/10/13 02:34:31;;;;;;;54.03;36.40;;;9.30;99.90;;;9.44;93.52;98458.06;5118104;28;21014;-81
2022/10/13 02:36:59;;;;;;;47.97;32.53;;;9.40;99.90;;;9.15;93.79;98403.31;5124605;28;20453;-82
2022/10/13 02:39:27;;;;;;;49.57;33.80;;;9.40;99.90;;;9.16;93.94;98413.06;5122156;28;20481;-81
2022/10/13 02:41:54;;;;;;;50.13;34.10;;;9.40;99.90;;;9.55;94.05;98464.75;5121803;28;20462;-81
2022/10/13 02:44:23;;;;;;;51.07;33.53;;;9.40;99.90;;;9.43;93.96;98462.63;5122381;27;20461;-81
2022/10/13 02:46:50;;;;;;;49.47;33.63;;;9.30;99.90;;;9.35;93.83;98471.72;5123598;28;20441;-82
2022/10/13 02:49:18;;;;;;;43.23;33.07;;;9.30;99.90;;;9.33;94.18;98471.06;5126189;28;20462;-81
2022/10/13 02:51:47;;;;;;;47.50;32.00;;;9.20;99.90;;;9.19;93.98;98455.81;5142499;27;20449;-81
2022/10/13 02:54:14;;;;;;;52.17;32.03;;;9.20;99.90;;;9.20;94.69;98447.53;5124896;27;20456;-81
2022/10/13 02:56:41;;;;;;;46.20;30.20;;;9.10;99.90;;;9.12;94.70;98452.22;5112709;27;20502;-81
2022/10/13 02:59:09;;;;;;;49.80;32.50;;;9.10;99.90;;;9.32;94.21;98455.91;5120710;27;20489;-81
2022/10/13 03:01:40;;;;;;;50.60;32.90;;;9.10;99.90;;;9.51;94.20;98458.94;5133403;27;21131;-82
2022/10/13 03:04:07;;;;;;;52.07;34.43;;;9.20;99.90;;;9.29;93.91;98450.09;5112290;28;20443;-82
2022/10/13 03:06:35;;;;;;;46.13;33.47;;;9.20;99.90;;;9.47;94.36;98463.91;5117288;27;20458;-80
2022/10/13 03:09:03;;;;;;;47.13;32.17;;;9.20;99.90;;;9.50;94.13;98457.28;5133083;27;20446;-81
2022/10/13 03:11:31;;;;;;;46.53;30.00;;;9.30;99.90;;;9.38;93.32;98439.97;5133367;27;20455;-80
2022/10/13 03:13:59;;;;;;;54.33;33.37;;;9.30;99.90;;;9.53;92.56;98462.28;5148778;27;20480;-80
2022/10/13 03:16:26;;;;;;;46.97;31.87;;;9.30;99.90;;;9.26;93.34;98443.22;5133177;27;20820;-81
2022/10/13 03:18:53;;;;;;;44.37;30.13;;;9.30;99.90;;;9.27;93.62;98458.34;5127333;27;20451;-81
2022/10/13 03:21:20;;;;;;;45.27;33.20;;;9.20;99.90;;;9.39;93.33;98466.72;5116100;27;20472;-80
2022/10/13 03:23:48;;;;;;;46.90;31.93;;;9.20;99.90;;;9.30;93.74;98451.75;5133832;27;20594;-81
2022/10/13 03:26:16;;;;;;;49.77;33.23;;;9.20;99.90;;;9.29;93.15;98461.69;5133189;27;20449;-81
2022/10/13 03:28:48;;;;;;;48.03;32.03;;;9.30;99.90;;;9.26;93.45;98462.09;5130322;27;20459;-80
2022/10/13 03:31:16;;;;;;;47.57;32.40;;;9.20;99.90;;;9.27;94.29;98465.63;5133504;27;20509;-80
2022/10/13 03:33:44;;;;;;;51.13;34.20;;;9.20;99.90;;;9.35;93.74;98460.91;5142110;27;20473;-80
2022/10/13 03:36:12;;;;;;;46.40;30.43;;;9.30;99.90;;;9.35;93.74;98458.22;5138090;27;20503;-79
2022/10/13 03:38:40;;;;;;;50.53;34.50;;;9.30;99.90;;;9.36;94.21;98445.56;5139300;27;20487;-79
2022/10/13 03:41:09;;;;;;;45.87;31.90;;;9.30;99.90;;;9.48;93.68;98460.16;5126352;27;20465;-79
2022/10/13 03:43:38;;;;;;;51.37;34.43;;;9.40;99.90;;;9.37;94.08;98457.19;5115764;27;20447;-80
2022/10/13 03:46:09;;;;;;;52.23;34.30;;;9.40;99.90;;;8.92;94.09;98372.06;5137904;27;20451;-79
2022/10/13 03:48:36;;;;;;;49.43;33.83;;;9.40;99.90;;;9.09;92.96;98394.13;5148843;27;20446;-79
2022/10/13 03:51:06;;;;;;;48.50;34.27;;;9.40;99.90;;;9.54;93.23;98455.84;5149855;27;20530;-79
2022/10/13 03:53:34;;;;;;;50.77;34.40;;;9.40;99.90;;;9.11;94.14;98416.38;5132102;27;20460;-80
2022/10/13 03:56:04;;;;;;;53.97;34.40;;;9.40;99.90;;;9.44;93.94;98460.75;5128560;27;20448;-80
2022/10/13 03:58:32;;;;;;;55.97;36.43;;;9.40;99.90;;;9.69;94.33;98449.50;5112675;28;20447;-81
2022/10/13 04:01:05;;;;;;;50.87;33.60;;;9.50;99.90;;;9.55;93.80;98441.31;5128228;27;20522;-81
2022/10/13 04:03:33;;;;;;;52.97;35.60;;;9.50;99.90;;;9.58;93.94;98424.75;5131724;27;20483;-82
2022/10/13 04:06:01;;;;;;;55.33;36.57;;;9.60;99.90;;;9.54;94.00;98425.31;5132868;27;20465;-81
2022/10/13 04:08:29;;;;;;;57.03;35.10;;;9.50;99.90;;;9.67;93.12;98430.81;5115007;27;20549;-81
2022/10/13 04:11:00;;;;;;;58.77;38.37;;;9.60;99.90;;;9.67;93.25;98436.19;5128037;27;20559;-80
2022/10/13 04:13:28;;;;;;;52.43;34.57;;;9.60;99.90;;;9.74;92.97;98439.78;5118158;27;20462;-79
2022/10/13 04:15:55;;;;;;;56.73;36.40;;;9.60;99.90;;;9.76;93.02;98436.88;5133661;27;20486;-78
2022/10/13 04:18:23;;;;;;;48.40;35.50;;;9.60;99.90;;;9.77;93.45;98441.22;5133296;27;20452;-79
2022/10/13 04:20:51;;;;;;;58.33;36.30;;;9.50;99.90;;;9.76;92.74;98450.34;5127939;27;20842;-79
2022/10/13 04:23:18;;;;;;;54.77;36.57;;;9.50;99.90;;;9.76;93.06;98451.19;5132010;27;20456;-80
2022/10/13 04:25:45;;;;;;;51.30;33.57;;;9.60;99.90;;;9.69;91.75;98434.13;5147549;27;20513;-78
2022/10/13 04:28:12;;;;;;;50.90;35.57;;;9.60;99.90;;;9.83;91.74;98451.25;5120134;27;20584;-78
2022/10/13 04:30:39;;;;;;;52.97;34.80;;;9.60;99.90;;;9.59;92.12;98418.31;5111262;27;20452;-80
2022/10/13 04:33:06;;;;;;;58.80;36.00;;;9.60;99.90;;;9.68;92.47;98431.66;5125863;27;20448;-79
2022/10/13 04:35:40;;;;;;;52.03;35.43;;;9.60;99.90;;;9.72;92.50;98443.69;5126798;27;20461;-79
2022/10/13 04:38:07;;;;;;;54.23;35.87;;;9.60;99.90;;;9.69;93.21;98439.53;5133769;27;20455;-78
2022/10/13 04:40:35;;;;;;;57.10;36.37;;;9.60;99.90;;;9.73;93.22;98435.41;5119989;27;20474;-79
2022/10/13 04:43:03;;;;;;;53.83;34.50;;;9.60;99.90;;;9.80;92.93;98437.31;5119521;27;20448;-79
2022/10/13 04:45:30;;;;;;;59.10;34.97;;;9.70;99.90;;;9.84;93.10;98442.09;5104462;27;21042;-78
2022/10/13 04:47:57;;;;;;;58.03;37.23;;;9.70;99.90;;;9.31;93.31;98351.75;5130215;27;20518;-77
2022/10/13 04:50:24;;;;;;;59.50;37.57;;;9.70;99.90;;;9.96;93.45;98430.75;5140760;27;20463;-77
2022/10/13 04:52:53;;;;;;;63.67;37.50;;;9.90;99.90;;;9.98;93.51;98428.69;5136834;27;20455;-76
2022/10/13 04:55:20;;;;;;;57.83;35.07;;;9.90;99.90;;;10.09;92.98;98417.31;5124640;27;20462;-76
2022/10/13 04:57:47;;;;;;;51.20;35.47;;;9.90;99.90;;;10.13;92.30;98423.09;5125869;27;20496;-77
2022/10/13 05:00:16;;;;;;;55.50;34.47;;;10.00;99.90;;;8.36;91.74;98140.25;5118950;27;20476;-77
2022/10/13 05:02:43;;;;;;;50.17;33.80;;;10.00;99.90;;;10.05;90.88;98397.97;5129536;27;20564;-78
2022/10/13 05:05:11;;;;;;;51.30;35.30;;;10.00;99.90;;;9.92;92.37;98409.53;5118305;27;21073;-79
2022/10/13 05:07:38;;;;;;;50.20;32.43;;;10.00;99.90;;;10.16;90.94;98418.13;5120558;27;20514;-79
2022/10/13 05:10:07;;;;;;;54.40;35.80;;;10.00;99.90;;;10.41;91.21;98430.28;5117083;27;20465;-79
2022/10/13 05:12:35;;;;;;;51.30;33.57;;;10.10;99.90;;;10.54;90.54;98429.47;5125445;27;20465;-77
2022/10/13 05:15:03;;;;;;;59.93;37.37;;;10.20;99.90;;;10.31;90.68;98419.84;5122447;27;20517;-80
2022/10/13 05:17:31;;;;;;;50.57;34.17;;;10.20;99.90;;;10.63;90.30;98425.53;5126974;27;20556;-80
2022/10/13 05:19:58;;;;;;;52.63;35.03;;;10.30;99.90;;;10.60;89.97;98417.84;5115174;27;20472;-80
2022/10/13 05:22:26;;;;;;;54.30;34.90;;;10.40;99.90;;;10.69;89.65;98419.34;5119345;27;20526;-79
2022/10/13 05:24:53;;;;;;;51.73;33.37;;;10.60;99.90;;;10.30;90.36;98380.38;5117111;27;20466;-80
2022/10/13 05:27:22;;;;;;;50.27;32.23;;;10.50;99.90;;;10.71;90.44;98406.44;5123870;27;20790;-79
2022/10/13 05:29:49;;;;;;;49.60;32.83;;;10.60;99.90;;;10.72;89.33;98409.97;5121407;27;20579;-79
2022/10/13 05:32:16;;;;;;;55.33;36.00;;;10.60;99.90;;;10.42;91.12;98405.78;5121868;27;20469;-78
2022/10/13 05:34:44;;;;;;;56.33;35.70;;;10.50;99.90;;;10.54;91.05;98414.09;5138163;27;20437;-80
2022/10/13 05:37:11;;;;;;;47.20;32.90;;;10.50;99.90;;;10.15;90.92;98357.06;5143074;27;20471;-79
2022/10/13 05:39:38;;;;;;;52.57;32.43;;;10.50;99.90;;;10.51;91.78;98419.09;5125309;27;20479;-80
2022/10/13 05:42:05;;;;;;;52.93;33.47;;;10.50;99.90;;;10.80;91.62;98406.22;5121552;27;20445;-82
2022/10/13 05:44:36;;;;;;;50.40;33.00;;;10.60;99.90;;;10.96;89.88;98418.50;5119249;27;20503;-81
2022/10/13 05:47:04;;;;;;;54.73;34.80;;;10.80;99.90;;;10.80;89.70;98425.16;5127355;27;20455;-80
2022/10/13 05:49:31;;;;;;;52.50;33.90;;;10.70;99.90;;;10.88;89.59;98419.53;5130917;27;20459;-80
2022/10/13 05:52:03;;;;;;;52.77;33.07;;;10.80;99.90;;;10.86;88.28;98422.44;5117878;27;20476;-80
2022/10/13 05:54:35;;;;;;;53.50;35.10;;;10.80;99.90;;;10.99;88.26;98426.19;5118801;27;20455;-81
2022/10/13 05:57:07;;;;;;;49.23;30.43;;;10.90;99.90;;;11.07;88.07;98417.88;5122856;27;20255;-83
2022/10/13 05:59:39;;;;;;;45.77;31.80;;;10.90;99.90;;;11.10;87.56;98427.44;5106664;27;20515;-80
2022/10/13 06:02:10;;;;;;;45.00;30.63;;;11.00;99.90;;;10.84;86.93;98348.00;5119143;27;20448;-81
2022/10/13 06:04:43;;;;;;;45.17;30.90;;;11.00;99.90;;;11.25;87.01;98424.53;5120811;27;21370;-80
2022/10/13 06:07:11;;;;;;;45.60;29.80;;;11.00;99.90;;;11.20;86.60;98422.44;5121558;27;20458;-82
2022/10/13 06:09:39;;;;;;;50.40;31.53;;;11.10;99.90;;;11.19;86.68;98426.19;5122005;27;20491;-81
2022/10/13 06:12:08;;;;;;;45.33;29.53;;;11.10;99.90;;;11.16;87.12;98421.22;5116831;27;20448;-81
2022/10/13 06:14:37;;;;;;;42.83;31.20;;;11.00;99.90;;;11.31;85.88;98421.81;5131584;27;21411;-80
2022/10/13 06:17:04;;;;;;;46.87;31.53;;;11.10;99.90;;;11.24;86.58;98418.28;5110856;27;20466;-79
2022/10/13 06:19:32;;;;;;;45.50;30.00;;;11.10;99.90;;;11.50;85.63;98416.56;5118829;27;20504;-81
2022/10/13 06:21:59;;;;;;;42.87;30.20;;;11.20;99.90;;;11.28;85.76;98414.09;5119339;27;20488;-80
2022/10/13 06:24:26;;;;;;;47.50;30.33;;;11.20;98.60;;;11.24;86.20;98420.97;5125254;27;20538;-80
2022/10/13 06:26:53;;;;;;;43.87;29.80;;;11.20;99.50;;;11.05;87.14;98434.31;5139405;27;20550;-79
2022/10/13 06:29:21;;;;;;;41.97;30.03;;;11.10;99.80;;;11.19;86.61;98426.19;5140867;27;20450;-81
2022/10/13 06:31:49;;;;;;;42.90;30.70;;;11.10;99.90;;;11.41;85.63;98434.06;5123932;28;20903;-79
2022/10/13 06:34:17;;;;;;;46.63;29.33;;;11.20;99.90;;;11.70;84.30;98438.19;5121190;27;20456;-78
2022/10/13 06:36:44;;;;;;;42.10;29.00;;;11.30;99.80;;;11.61;84.47;98434.88;5125096;27;20511;-79
2022/10/13 06:39:11;;;;;;;42.17;28.50;;;11.40;97.70;;;11.34;84.90;98432.22;5124753;27;20460;-81
2022/10/13 06:41:38;;;;;;;40.70;27.63;;;11.30;97.70;;;11.46;85.38;98429.69;5127187;27;20470;-78
2022/10/13 06:44:05;;;;;;;40.37;27.83;;;11.30;98.30;;;11.63;84.47;98431.94;5121601;27;20536;-81
2022/10/13 06:46:33;;;;;;;39.20;27.40;;;11.40;98.40;;;11.61;83.70;98429.47;5138724;27;20820;-81
2022/10/13 06:49:01;;;;;;;37.03;27.20;;;11.40;97.30;;;11.54;84.43;98439.44;5125877;27;20500;-80
2022/10/13 06:51:28;;;;;;;40.23;27.03;;;11.40;97.80;;;11.59;84.55;98441.53;5124910;27;20543;-79
2022/10/13 06:53:56;;;;;;;40.63;25.80;;;11.40;97.40;;;11.46;84.22;98437.81;5124171;27;20443;-80
2022/10/13 06:56:23;;;;;;;35.00;27.30;;;11.40;96.90;;;11.48;84.18;98435.72;5139880;27;20866;-81
2022/10/13 06:58:50;;;;;;;37.27;24.60;;;11.40;96.30;;;11.28;85.33;98440.34;5119814;27;20460;-79
2022/10/13 07:01:18;;;;;;;40.37;25.83;;;11.30;97.70;;;11.26;85.93;98445.94;5136144;27;20466;-80
2022/10/13 07:03:48;;;;;;;37.67;27.70;;;11.30;97.90;;;11.34;85.55;98442.19;5129508;27;20872;-79
2022/10/13 07:06:17;;;;;;;38.57;27.00;;;11.30;98.30;;;11.45;84.88;98440.72;5115905;27;20971;-81
2022/10/13 07:08:45;;;;;;;39.60;27.43;;;11.40;97.50;;;11.57;84.18;98430.91;5143188;27;20698;-78
2022/10/13 07:11:14;;;;;;;38.03;25.57;;;11.50;96.60;;;11.50;84.46;98437.38;5129380;27;20458;-78
2022/10/13 07:13:42;;;;;;;44.03;26.70;;;11.50;96.10;;;11.44;84.81;98436.34;5120022;27;20494;-78
2022/10/13 07:16:10;;;;;;;37.20;26.87;;;11.50;96.30;;;11.73;83.78;98436.91;5126374;27;20536;-79
2022/10/13 07:18:37;;;;;;;44.30;26.50;;;11.50;96.80;;;11.67;83.38;98430.47;5130385;27;20460;-81
2022/10/13 07:21:06;;;;;;;36.17;27.43;;;11.60;95.60;;;11.66;83.59;98430.69;5140341;27;20471;-81
2022/10/13 07:23:34;;;;;;;32.37;24.10;;;11.60;95.70;;;11.99;82.20;98427.03;5124959;27;20456;-81
2022/10/13 07:26:02;;;;;;;28.83;23.47;;;11.70;95.50;;;11.88;82.51;98429.34;5109352;27;20458;-75
2022/10/13 07:28:29;;;;;;;34.03;23.70;;;11.70;94.90;;;11.71;83.07;98423.59;5121304;27;20448;-74
2022/10/13 07:30:56;;;;;;;34.17;25.00;;;11.80;94.10;;;11.63;83.24;98421.09;5121067;27;20454;-79
2022/10/13 07:33:24;;;;;;;33.10;24.80;;;11.70;94.60;;;11.98;82.10;98426.22;5123299;27;20478;-76
2022/10/13 07:35:51;;;;;;;33.17;24.03;;;11.80;94.50;;;12.02;81.25;98429.34;5123464;27;21223;-75
2022/10/13 07:38:18;;;;;;;34.50;24.00;;;11.90;93.80;;;11.72;81.47;98386.50;5124577;27;20475;-75
2022/10/13 07:40:47;;;;;;;30.17;22.30;;;11.90;93.80;;;11.96;81.68;98419.34;5120950;27;21011;-75
2022/10/13 07:43:14;;;;;;;30.50;22.47;;;11.90;93.90;;;12.13;81.04;98435.94;5122088;27;21054;-78
2022/10/13 07:45:42;;;;;;;27.63;22.37;;;12.00;93.60;;;12.19;81.19;98429.69;5121766;27;20510;-74
2022/10/13 07:48:09;;;;;;;29.77;23.47;;;12.00;93.60;;;11.96;81.37;98422.06;5127968;27;20489;-74
2022/10/13 07:50:37;;;;;;;30.90;22.80;;;12.00;93.60;;;11.95;81.39;98409.56;5120519;27;20460;-80
2022/10/13 07:53:04;;;;;;;31.13;21.87;;;12.00;93.30;;;12.19;80.06;98427.78;5118412;27;20452;-75
2022/10/13 07:55:31;;;;;;;28.03;22.30;;;12.00;93.10;;;11.99;81.39;98438.72;5132140;27;20459;-75
2022/10/13 07:58:01;;;;;;;26.00;21.47;;;11.90;93.50;;;11.88;81.75;98429.34;5121966;27;20465;-79
2022/10/13 08:00:28;;;;;;;29.00;20.70;;;11.80;94.00;;;11.97;81.38;98427.22;5140420;27;20949;-76
2022/10/13 08:02:56;;;;;;;26.40;20.90;;;11.90;93.70;;;11.96;81.31;98435.59;5109687;28;20455;-78
2022/10/13 08:05:24;;;;;;;28.80;22.13;;;11.90;93.60;;;12.16;81.16;98428.22;5107771;27;20477;-78
2022/10/13 08:07:52;;;;;;;26.97;20.83;;;12.00;93.60;;;12.26;80.50;98424.25;5132574;27;20458;-76
2022/10/13 08:10:19;;;;;;;27.20;20.90;;;12.10;93.10;;;12.41;79.58;98430.19;5145447;27;20440;-76
2022/10/13 08:12:47;;;;;;;25.47;20.43;;;12.20;92.70;;;12.22;79.64;98390.50;5117726;27;20476;-80
2022/10/13 08:15:16;;;;;;;24.90;20.03;;;12.30;92.50;;;12.23;80.70;98430.09;5121973;27;20453;-78
2022/10/13 08:17:43;;;;;;;25.43;19.60;;;12.10;92.80;;;12.54;79.15;98423.03;5124638;27;20444;-73
2022/10/13 08:20:11;;;;;;;26.97;19.53;;;12.30;92.90;;;12.42;79.34;98422.88;5117604;27;20450;-73
2022/10/13 08:22:38;;;;;;;23.07;19.67;;;12.20;92.40;;;12.10;80.57;98434.53;5122236;27;20483;-75
2022/10/13 08:25:07;;;;;;;24.60;20.40;;;12.10;92.60;;;12.21;80.57;98426.75;5118340;27;20452;-75
2022/10/13 08:27:34;;;;;;;24.90;19.97;;;12.10;93.10;;;12.25;80.21;98425.28;5125633;27;20451;-77
2022/10/13 08:30:01;;;;;;;23.50;18.57;;;12.10;93.00;;;12.12;81.09;98407.19;5123879;27;20464;-74
2022/10/13 08:32:30;;;;;;;24.83;20.00;;;12.00;93.70;;;12.36;80.04;98424.59;5120989;27;20467;-75
2022/10/13 08:34:57;;;;;;;25.00;18.47;;;12.20;93.20;;;12.30;80.62;98418.19;5116349;27;21060;-75
2022/10/13 08:37:24;;;;;;;24.10;18.70;;;12.20;93.30;;;12.29;80.02;98397.56;5117553;27;20467;-75
2022/10/13 08:39:55;;;;;;;22.53;18.40;;;12.20;93.20;;;12.53;79.68;98424.09;5127090;27;20463;-73
2022/10/13 08:42:23;;;;;;;23.20;19.17;;;12.20;93.00;;;12.35;80.25;98424.81;5121674;27;20541;-75
2022/10/13 08:44:59;;;;;;;24.20;18.03;;;12.30;92.70;;;12.66;79.19;98418.59;5120032;27;20461;-72
2022/10/13 08:47:39;;;;;;;19.63;17.53;;;12.40;92.80;;;12.78;79.20;98415.16;5124225;27;20485;-73
2022/10/13 08:50:14;;;;;;;27.37;20.03;;;12.40;93.00;;;13.14;77.38;98419.84;5120781;27;20889;-75
2022/10/13 08:52:50;;;;;;;22.60;18.97;;;12.70;92.20;;;12.98;77.66;98421.25;5136122;27;20446;-73
2022/10/13 08:55:25;;;;;;;30.63;19.03;;;12.80;91.40;;;12.72;78.87;98414.97;5135791;27;20468;-75
2022/10/13 08:57:52;;;;;;;27.63;18.63;;;12.70;91.70;;;12.75;78.33;98389.31;5123792;27;20524;-73
2022/10/13 09:00:20;;;;;;;25.90;18.87;;;12.80;91.60;;;12.93;78.23;98417.53;5120568;27;20550;-76
2022/10/13 09:02:50;;;;;;;25.63;18.47;;;12.80;91.40;;;13.09;77.33;98394.44;5138770;27;20530;-78
2022/10/13 09:05:31;;;;;;;59.33;45.33;;;12.90;91.50;;;13.38;76.95;98413.78;5123572;27;20476;-79
2022/10/13 09:08:00;;;;;;;18.77;16.87;;;13.00;91.30;;;13.54;76.42;98407.81;5125046;27;20484;-77
2022/10/13 09:10:27;;;;;;;21.57;17.40;;;13.20;90.80;;;13.57;75.96;98407.38;5118497;27;20465;-77
2022/10/13 09:12:54;;;;;;;26.87;16.77;;;13.20;90.80;;;13.55;75.77;98420.31;5131210;27;20460;-79
2022/10/13 09:15:22;;;;;;;17.47;15.20;;;13.40;90.40;;;13.51;76.50;98421.03;5121836;27;20481;-78
2022/10/13 09:18:09;;;;;;;31.63;17.40;;;13.30;90.50;;;13.55;76.68;98414.91;5136172;27;20502;-78
2022/10/13 09:20:38;;;;;;;18.27;15.13;;;13.40;90.60;;;13.51;75.73;98408.28;5137449;27;20458;-78
2022/10/13 09:23:07;;;;;;;20.70;17.60;;;13.40;90.40;;;13.32;77.20;98405.50;5135655;27;20491;-80
2022/10/13 09:25:42;;;;;;;18.90;15.90;;;13.20;90.70;;;13.41;76.68;98402.50;5150148;27;20518;-76
2022/10/13 09:28:19;;;;;;;19.07;16.90;;;13.30;90.70;;;13.39;77.58;98393.75;5125796;27;20567;-78
2022/10/13 09:30:48;;;;;;;24.23;16.70;;;13.20;90.80;;;13.59;76.43;98388.13;5124849;27;20569;-78
2022/10/13 09:33:26;;;;;;;21.20;16.40;;;13.30;91.00;;;13.58;76.04;98381.06;5126653;27;20514;-76
2022/10/13 09:36:12;;;;;;;22.30;17.90;;;13.30;90.80;;;13.82;75.58;98389.34;5139193;27;21193;-79
2022/10/13 09:38:44;;;;;;;19.27;16.27;;;13.50;90.50;;;13.51;76.78;98383.84;5138250;27;20966;-77
2022/10/13 09:41:16;;;;;;;21.73;16.87;;;13.40;90.40;;;14.02;75.05;98383.66;5122572;27;20504;-77
2022/10/13 09:44:01;;;;;;;21.50;17.20;;;13.60;90.50;;;13.41;74.86;98310.22;5111447;27;20458;-78
2022/10/13 09:46:34;;;;;;;20.10;17.60;;;13.60;90.10;;;13.67;76.04;98387.00;5116055;27;20448;-78
2022/10/13 09:49:06;;;;;;;26.77;18.40;;;13.50;90.20;;;13.30;76.84;98347.91;5133211;27;20441;-78
2022/10/13 09:51:37;;;;;;;19.83;17.63;;;13.40;90.50;;;13.92;74.94;98394.25;5118916;27;20540;-78
2022/10/13 09:54:25;;;;;;;20.30;18.10;;;13.60;90.30;;;13.94;75.70;98392.94;5116329;27;20461;-78
2022/10/13 09:56:57;;;;;;;18.97;16.87;;;13.70;90.10;;;14.02;74.76;98389.06;5114665;27;20461;-77
2022/10/13 09:59:33;;;;;;;20.33;16.53;;;13.90;89.80;;;14.17;74.50;98400.38;5114950;27;20488;-78
2022/10/13 10:02:15;;;;;;;18.40;16.27;;;14.00;89.30;;;14.05;74.75;98385.94;5122867;27;20510;-77
2022/10/13 10:04:46;;;;;;;19.77;16.60;;;13.90;89.30;;;14.25;74.42;98365.78;5117056;27;20469;-77
2022/10/13 10:07:20;;;;;;;21.43;16.93;;;14.00;90.00;;;14.71;72.57;98396.94;5115630;27;20863;-77
2022/10/13 10:09:53;;;;;;;21.17;17.70;;;14.30;89.00;;;14.55;72.66;98392.13;5122163;27;20465;-77
2022/10/13 10:12:23;;;;;;;26.03;17.40;;;14.30;88.60;;;13.92;74.46;98384.19;5140161;27;20457;-78
2022/10/13 10:14:51;;;;;;;19.90;17.50;;;14.00;88.90;;;14.34;73.28;98391.59;5114759;27;21204;-77
2022/10/13 10:17:28;;;;;;;22.43;17.70;;;14.10;88.90;;;14.10;73.79;98380.63;5124714;27;20899;-77
2022/10/13 10:20:14;;;;;;;20.10;17.30;;;14.10;88.80;;;13.84;74.99;98395.38;5142593;27;20594;-78
2022/10/13 10:22:52;;;;;;;20.40;18.23;;;13.90;89.10;;;13.79;75.55;98404.19;5131875;27;20468;-77
2022/10/13 10:25:31;;;;;;;24.23;19.50;;;13.80;89.70;;;13.68;76.27;98396.81;5133540;27;20452;-78